Time;durP1;ratioP1;P1;durP2;ratioP2;P2;SDS_P1;SDS_P2;PMS_P1;PMS_P2;Temp;Humidity;BMP_temperature;BMP_pressure;BME280_temperature;BME280_humidity;BME280_pressure;Samples;Min_cycle;Max_cycle;Signal;HPM_P1;HPM_P2
2022/01/21 00:01:37;;;;;;;69.28;28.80;;;;;;;-0.31;85.41;99265.03;5033190;28;20182;-85
2022/01/21 00:04:03;;;;;;;67.40;29.58;;;;;;;-0.16;84.81;99272.88;5015742;28;20192;-84
2022/01/21 00:06:29;;;;;;;70.35;29.50;;;;;;;-0.54;84.75;99214.13;5033507;28;20162;-85
2022/01/21 00:08:55;;;;;;;63.70;27.20;;;;;;;-2.61;84.21;98869.81;5033392;28;20730;-84
2022/01/21 00:11:22;;;;;;;64.70;28.73;;;;;;;-0.65;85.27;99229.03;5015866;28;20495;-85
2022/01/21 00:13:48;;;;;;;71.88;30.40;;;;;;;-1.28;86.16;99112.72;5033559;28;20162;-84
2022/01/21 00:16:15;;;;;;;72.43;31.73;;;;;;;-0.88;86.45;99221.22;5033273;28;20717;-85
2022/01/21 00:18:45;;;;;;;77.88;30.55;;;;;;;-0.40;86.49;99286.63;5034416;28;20701;-84
2022/01/21 00:32:08;;;;;;;97.65;39.22;;;;;;;0.06;84.92;99288.81;5033675;28;20562;-85
2022/01/21 00:34:34;;;;;;;103.15;39.85;;;;;;;0.00;84.60;99265.94;5033531;28;20240;-85
2022/01/21 00:36:59;;;;;;;106.53;39.97;;;;;;;-0.81;83.68;99109.22;5033806;28;20615;-84
2022/01/21 00:39:28;;;;;;;94.37;40.37;;;;;;;-1.14;83.35;99054.28;5033494;28;20582;-84
2022/01/21 00:44:45;;;;;;;98.57;38.22;;;;;;;-0.03;83.93;99261.56;4972712;28;20183;-85
2022/01/21 00:47:10;;;;;;;116.47;40.60;;;;;;;-0.32;84.46;99225.09;4972205;28;20254;-84
2022/01/21 00:49:36;;;;;;;99.30;38.90;;;;;;;-1.74;84.56;99002.88;4972237;28;20184;-84
2022/01/21 00:52:01;;;;;;;85.97;33.13;;;;;;;-1.63;84.75;99045.94;4972633;28;20588;-85
2022/01/21 00:54:27;;;;;;;101.33;38.37;;;;;;;-0.55;85.39;99242.22;4972293;28;20179;-84
2022/01/21 00:56:52;;;;;;;102.67;38.50;;;;;;;-0.81;86.60;99200.28;4971829;28;20192;-84
2022/01/21 00:59:17;;;;;;;96.43;38.50;;;;;;;-0.45;86.67;99255.53;4971805;28;20172;-85
2022/01/21 01:01:43;;;;;;;106.23;39.40;;;;;;;-1.93;87.45;99052.53;4971652;28;20357;-84
2022/01/21 01:04:08;;;;;;;82.37;33.00;;;;;;;-1.01;88.27;99198.59;4972313;28;20168;-84
2022/01/21 01:06:34;;;;;;;83.20;32.53;;;;;;;-1.79;88.95;99081.84;4971908;28;20276;-84
2022/01/21 01:08:59;;;;;;;87.40;34.47;;;;;;;-0.96;90.37;99248.69;4971565;28;20195;-85
2022/01/21 01:11:44;;;;;;;82.90;31.63;;;;;;;-1.43;90.89;99167.66;4971710;28;20168;-86
2022/01/21 01:20:00;;;;;;;89.00;34.38;;;;;;;-1.53;90.65;99101.44;4971929;28;20260;-85
2022/01/21 01:27:48;;;;;;;73.38;31.15;;;;;;;-1.53;88.70;99058.38;5032667;28;20331;-85
2022/01/21 01:30:16;;;;;;;76.93;32.23;;;;;;;-1.07;88.54;99131.00;5032142;28;20162;-85
2022/01/21 01:32:44;;;;;;;75.30;30.73;;;;;;;-1.09;88.54;99117.59;5032198;28;20173;-85
2022/01/21 01:35:12;;;;;;;74.55;31.40;;;;;;;-0.81;87.76;99163.00;5014919;28;20186;-85
2022/01/21 01:49:22;;;;;;;74.00;31.50;;;;;;;-1.10;88.58;99150.66;5033500;28;20622;-85
2022/01/21 01:50:55;;;;;;;69.05;29.40;;;;;;;-0.61;89.49;99257.50;5032168;28;20204;-85
2022/01/21 01:53:27;;;;;;;65.45;27.02;;;;;;;-0.47;89.31;99221.38;5031627;28;20657;-85
2022/01/21 01:55:52;;;;;;;68.53;29.13;;;;;;;-0.52;89.72;99230.06;5032077;28;20170;-85
2022/01/21 01:58:18;;;;;;;60.33;26.27;;;;;;;-1.03;90.30;99142.09;5032485;28;20165;-85
2022/01/21 02:00:43;;;;;;;67.27;29.07;;;;;;;-1.25;90.74;99134.44;5031927;28;20276;-86
2022/01/21 02:03:14;;;;;;;59.40;26.17;;;;;;;-2.47;91.00;98912.34;5014665;28;20177;-85
2022/01/21 02:05:40;;;;;;;50.30;19.90;;;;;;;-1.71;91.90;99044.44;5031981;28;20170;-85
2022/01/21 02:08:06;;;;;;;54.50;23.83;;;;;;;-1.20;94.01;99197.78;5032032;28;20178;-85
2022/01/21 02:10:32;;;;;;;47.13;21.45;;;;;;;-3.76;93.82;98741.81;5031994;28;20253;-85
2022/01/21 02:13:04;;;;;;;52.20;20.83;;;;;;;-1.73;95.07;99110.44;5031312;28;20198;-85
2022/01/21 02:15:34;;;;;;;55.17;21.83;;;;;;;-1.57;95.43;99114.34;5013513;28;20665;-85
2022/01/21 02:23:27;;;;;;;53.83;22.90;;;;;;;-1.15;95.63;99190.75;5031926;28;20188;-85
2022/01/21 02:25:53;;;;;;;64.10;24.80;;;;;;;-1.52;96.11;99164.38;5031500;28;20166;-85
2022/01/21 02:28:19;;;;;;;61.43;25.40;;;;;;;-1.31;96.24;99184.44;5031454;28;20263;-85
2022/01/21 02:30:59;;;;;;;63.25;27.13;;;;;;;-1.88;95.40;99068.69;5031388;28;20177;-85
2022/01/21 02:33:26;;;;;;;62.15;25.08;;;;;;;-1.05;95.33;99195.72;5031588;28;20174;-86
2022/01/21 02:35:51;;;;;;;69.65;27.13;;;;;;;-0.76;94.18;99209.84;5013754;28;20170;-85
2022/01/21 02:38:17;;;;;;;66.20;27.00;;;;;;;-1.76;92.54;99020.88;5031244;28;20649;-85
2022/01/21 02:40:44;;;;;;;62.60;25.57;;;;;;;-0.32;93.74;99319.59;5031375;28;20236;-85
2022/01/21 02:43:10;;;;;;;90.45;33.40;;;;;;;-2.97;92.72;98848.56;5031450;28;20169;-85
2022/01/21 02:45:38;;;;;;;106.78;38.00;;;;;;;-0.08;91.62;99297.63;5031237;28;20558;-85
2022/01/21 02:48:07;;;;;;;97.00;36.72;;;;;;;0.07;91.96;99297.16;5031608;28;20173;-86
2022/01/21 02:50:32;;;;;;;102.95;36.13;;;;;;;0.01;91.53;99300.00;5031407;28;20618;-86
2022/01/21 02:53:11;;;;;;;91.90;35.60;;;;;;;-3.13;92.31;98802.59;5031020;28;20173;-86
2022/01/21 02:55:37;;;;;;;101.78;36.67;;;;;;;-2.52;93.07;98890.38;5031742;28;20170;-86
2022/01/21 02:58:02;;;;;;;84.23;33.13;;;;;;;-3.62;94.13;98753.78;5016034;28;20177;-85
2022/01/21 03:00:28;;;;;;;77.27;30.37;;;;;;;-0.41;94.83;99266.63;5035613;28;20223;-85
2022/01/21 03:02:53;;;;;;;73.40;31.80;;;;;;;-3.12;93.80;98739.97;5035378;28;20166;-85
2022/01/21 03:05:19;;;;;;;73.17;30.10;;;;;;;0.15;92.30;99259.72;5035085;28;20162;-84
2022/01/21 03:07:45;;;;;;;68.97;27.43;;;;;;;0.27;90.61;99255.75;5034960;28;20259;-85
2022/01/21 03:10:13;;;;;;;51.55;19.73;;;;;;;-1.28;89.42;99000.13;5034896;28;20162;-85
2022/01/21 03:12:38;;;;;;;70.10;29.98;;;;;;;-1.09;89.68;99020.75;5034870;28;20174;-86
2022/01/21 03:15:04;;;;;;;71.33;30.73;;;;;;;-1.51;88.49;98906.38;5034964;28;20225;-85
2022/01/21 03:17:30;;;;;;;69.75;28.88;;;;;;;-0.26;87.78;99091.31;5017259;28;20578;-85
2022/01/21 03:19:55;;;;;;;69.43;25.70;;;;;;;-0.21;88.50;99153.13;5034309;28;20194;-85
2022/01/21 03:22:21;;;;;;;66.83;25.03;;;;;;;-0.39;89.01;99124.28;5017090;28;20704;-85
2022/01/21 03:24:46;;;;;;;68.20;29.53;;;;;;;-0.34;88.44;99134.59;5035190;28;20166;-84
2022/01/21 03:27:12;;;;;;;64.57;27.23;;;;;;;-0.13;87.33;99139.69;5034886;28;20186;-84
2022/01/21 03:29:37;;;;;;;65.07;26.57;;;;;;;-1.10;85.31;98951.97;5017132;28;20753;-86
2022/01/21 03:32:03;;;;;;;58.80;24.93;;;;;;;-0.73;83.34;98993.94;5034620;28;20202;-85
2022/01/21 03:34:28;;;;;;;54.40;23.60;;;;;;;-2.48;81.92;98664.47;5018947;28;20228;-84
2022/01/21 03:36:54;;;;;;;58.03;23.70;;;;;;;-1.77;80.99;98747.13;5034508;28;20209;-85
2022/01/21 03:39:20;;;;;;;52.10;24.23;;;;;;;-0.06;80.19;99006.72;5034846;28;20170;-86
2022/01/21 03:41:45;;;;;;;59.40;25.63;;;;;;;0.62;79.66;99109.13;5034242;28;20249;-85
2022/01/21 03:44:11;;;;;;;53.40;23.97;;;;;;;-2.28;79.61;98654.53;5034500;28;20181;-85
2022/01/21 03:46:36;;;;;;;53.47;23.53;;;;;;;-0.48;78.52;98937.09;5034598;28;20173;-85
2022/01/21 03:49:04;;;;;;;53.20;24.57;;;;;;;1.41;79.48;99274.72;5034499;28;20177;-85
2022/01/21 03:51:30;;;;;;;47.20;19.40;;;;;;;1.33;79.83;99276.63;5034239;28;20306;-85
2022/01/21 03:53:55;;;;;;;53.33;23.57;;;;;;;1.38;79.60;99270.38;5037384;28;20451;-85
2022/01/21 03:56:21;;;;;;;52.23;22.67;;;;;;;-0.47;78.23;98935.47;5035360;28;20178;-85
2022/01/21 03:58:46;;;;;;;47.50;22.13;;;;;;;-0.76;77.24;98862.00;5036678;28;20169;-85
2022/01/21 04:01:12;;;;;;;48.50;19.53;;;;;;;1.64;75.95;99263.25;5033702;28;20278;-85
2022/01/21 04:03:37;;;;;;;46.67;21.43;;;;;;;1.27;74.08;99166.47;5034082;28;20196;-85
2022/01/21 04:06:03;;;;;;;44.60;20.73;;;;;;;-1.21;72.85;98739.22;5034138;28;20162;-85
2022/01/21 04:08:29;;;;;;;49.47;22.17;;;;;;;1.86;71.69;99244.91;5015951;28;20563;-85
2022/01/21 04:10:54;;;;;;;45.40;21.63;;;;;;;1.22;70.96;99129.47;5034273;28;20269;-85
2022/01/21 04:13:22;;;;;;;50.63;21.10;;;;;;;-1.75;70.86;98615.78;5034658;28;20178;-85
2022/01/21 04:15:50;;;;;;;53.87;23.17;;;;;;;1.74;70.32;99178.38;5033677;28;20225;-85
2022/01/21 04:18:17;;;;;;;82.93;33.57;;;;;;;2.29;70.72;99252.28;5016552;28;20409;-86
2022/01/21 04:20:43;;;;;;;95.50;34.50;;;;;;;2.23;70.36;99261.84;5034006;28;20440;-85
2022/01/21 04:23:10;;;;;;;95.07;34.97;;;;;;;2.25;70.57;99243.69;5016182;28;20397;-85
2022/01/21 04:25:36;;;;;;;62.03;24.40;;;;;;;-1.10;69.26;98639.09;5034038;28;20904;-85
2022/01/21 04:28:02;;;;;;;66.80;27.77;;;;;;;-0.86;68.56;98690.63;5033672;28;20408;-85
2022/01/21 04:30:27;;;;;;;74.03;28.67;;;;;;;1.02;69.08;98980.94;5035343;28;20405;-85
2022/01/21 04:32:54;;;;;;;58.47;25.53;;;;;;;0.98;69.01;98981.50;5034560;28;20198;-84
2022/01/21 04:35:20;;;;;;;103.23;46.47;;;;;;;0.43;68.75;98891.88;5035417;28;20401;-85
2022/01/21 04:38:06;;;;;;;246.77;107.80;;;;;;;1.41;68.95;99041.19;5016504;28;20190;-85
2022/01/21 04:40:36;;;;;;;138.00;55.80;;;;;;;2.28;72.23;99221.47;5034800;28;20193;-85
2022/01/21 04:48:31;;;;;;;116.50;51.03;;;;;;;1.74;76.72;99267.31;5036027;28;20403;-86
2022/01/21 04:51:00;;;;;;;137.03;57.43;;;;;;;1.89;77.12;99258.50;5034426;28;20867;-85
2022/01/21 04:53:28;;;;;;;135.27;56.23;;;;;;;0.39;77.44;99011.88;5035611;28;20232;-85
2022/01/21 04:55:54;;;;;;;158.43;63.23;;;;;;;1.87;77.87;99274.13;5035454;28;20492;-84
2022/01/21 04:58:20;;;;;;;149.60;62.47;;;;;;;0.34;77.23;98989.13;5033658;28;20401;-85
2022/01/21 05:00:46;;;;;;;89.07;38.33;;;;;;;2.03;76.97;99257.03;5032557;28;20660;-85
2022/01/21 05:03:12;;;;;;;90.67;36.87;;;;;;;1.31;79.85;99203.34;5033084;28;20459;-85
2022/01/21 05:05:39;;;;;;;62.93;27.97;;;;;;;-0.18;81.98;99000.78;5015441;28;20413;-85
2022/01/21 05:08:09;;;;;;;67.27;29.17;;;;;;;0.93;83.01;99179.63;5033141;28;20404;-85
2022/01/21 05:10:35;;;;;;;66.43;31.07;;;;;;;0.94;82.95;99163.91;5017067;28;21050;-86
2022/01/21 05:13:01;;;;;;;74.80;31.53;;;;;;;-0.52;82.26;98892.00;5034649;28;20401;-85
2022/01/21 05:18:15;;;;;;;106.67;41.87;;;;;;;-0.59;82.47;98922.97;4971660;28;20195;-85
2022/01/21 05:20:40;;;;;;;94.93;36.53;;;;;;;-0.28;82.72;98969.38;4955192;28;20470;-85
2022/01/21 05:23:06;;;;;;;97.83;42.73;;;;;;;1.65;84.09;99343.94;4972078;28;20202;-85
2022/01/21 05:25:31;;;;;;;102.70;42.83;;;;;;;0.29;84.77;99094.06;4972405;28;20246;-85
2022/01/21 05:27:59;;;;;;;71.47;32.50;;;;;;;0.93;85.54;99220.34;4956359;28;20644;-85
2022/01/21 05:30:24;;;;;;;111.43;40.83;;;;;;;1.06;85.85;99217.19;4972158;28;20652;-85
2022/01/21 05:32:50;;;;;;;102.23;41.40;;;;;;;0.90;85.93;99191.84;4972417;28;20415;-85
2022/01/21 05:35:15;;;;;;;112.60;38.53;;;;;;;1.06;85.93;99220.56;4972128;28;20203;-85
2022/01/21 05:37:41;;;;;;;83.73;36.93;;;;;;;0.63;85.79;99154.81;4971807;28;20175;-85
2022/01/21 05:40:13;;;;;;;98.00;40.97;;;;;;;2.02;86.88;99365.97;4971884;28;20192;-85
2022/01/21 05:42:38;;;;;;;89.10;37.13;;;;;;;2.11;85.89;99365.81;4972016;28;20267;-85
2022/01/21 05:47:30;;;;;;;124.50;45.80;;;;;;;1.54;87.99;99288.25;4971979;28;20180;-86
2022/01/21 05:49:55;;;;;;;121.17;44.83;;;;;;;0.38;88.23;99099.75;4971570;28;20471;-85
2022/01/21 05:52:29;;;;;;;113.23;41.73;;;;;;;0.06;88.99;99056.53;4972034;28;20164;-86
2022/01/21 05:54:54;;;;;;;134.23;47.77;;;;;;;-0.91;90.78;98922.91;4994915;28;20186;-85
2022/01/21 05:57:20;;;;;;;152.33;52.43;;;;;;;2.06;91.90;99412.03;5032320;28;20780;-84
2022/01/21 05:59:45;;;;;;;211.00;65.67;;;;;;;2.13;91.92;99420.09;5034065;28;20275;-85
2022/01/21 06:02:12;;;;;;;164.27;56.40;;;;;;;-1.36;92.91;98857.13;5018957;28;20181;-86
2022/01/21 06:04:39;;;;;;;189.00;69.13;;;;;;;2.05;94.64;99428.63;5032377;28;20167;-85
2022/01/21 06:07:06;;;;;;;229.73;77.70;;;;;;;1.00;95.70;99267.41;5032391;28;20405;-85
2022/01/21 06:09:32;;;;;;;190.53;67.87;;;;;;;1.45;97.24;99344.94;5017041;28;20420;-85
2022/01/21 06:11:58;;;;;;;134.87;52.83;;;;;;;-0.33;99.13;99060.09;5032786;28;20522;-84
2022/01/21 06:14:25;;;;;;;131.60;50.13;;;;;;;-0.69;100.00;99002.50;5037648;28;20233;-85
2022/01/21 06:16:51;;;;;;;101.80;42.70;;;;;;;0.89;100.00;99279.78;5021015;28;20174;-85
2022/01/21 06:19:16;;;;;;;98.20;42.13;;;;;;;0.11;100.00;99133.28;5033455;28;20444;-85
2022/01/21 06:21:42;;;;;;;83.83;33.93;;;;;;;0.78;100.00;99268.97;5031638;28;20432;-85
2022/01/21 06:24:07;;;;;;;87.33;38.40;;;;;;;1.02;100.00;99309.88;5031425;28;20158;-85
2022/01/21 06:26:34;;;;;;;86.00;35.50;;;;;;;-0.46;100.00;99116.19;5031888;28;20232;-86
2022/01/21 06:29:00;;;;;;;97.00;38.93;;;;;;;1.72;100.00;99461.81;5032115;28;20154;-86
2022/01/21 06:31:25;;;;;;;148.03;65.07;;;;;;;-0.22;100.00;99116.53;5031907;28;20436;-86
2022/01/21 06:33:51;;;;;;;82.67;37.03;;;;;;;-0.28;100.00;99143.44;5034325;28;20626;-86
2022/01/21 06:36:16;;;;;;;224.47;83.97;;;;;;;1.01;100.00;99325.63;5035138;28;20190;-85
2022/01/21 06:38:42;;;;;;;159.50;58.53;;;;;;;0.96;100.00;99295.31;5035313;28;20230;-86
2022/01/21 06:41:07;;;;;;;84.33;34.53;;;;;;;-0.55;100.00;99045.88;5036119;28;20194;-86
2022/01/21 06:43:32;;;;;;;71.70;30.43;;;;;;;0.84;100.00;99301.84;5034702;28;20546;-85
2022/01/21 06:45:58;;;;;;;68.50;28.73;;;;;;;-0.26;100.00;99106.25;5034528;28;20198;-86
2022/01/21 06:48:25;;;;;;;67.17;28.03;;;;;;;0.09;100.00;99154.69;4999743;28;20237;-86
2022/01/21 06:50:50;;;;;;;61.53;28.23;;;;;;;0.19;100.00;99157.19;5015816;28;20200;-86
2022/01/21 06:53:16;;;;;;;55.07;23.80;;;;;;;-0.83;100.00;99017.91;5030445;28;20850;-86
2022/01/21 06:55:41;;;;;;;57.90;27.50;;;;;;;2.22;100.00;99495.72;5014751;28;20246;-86
2022/01/21 06:58:07;;;;;;;64.40;26.03;;;;;;;0.73;100.00;99232.88;4997291;28;20625;-85
2022/01/21 07:00:32;;;;;;;65.83;27.80;;;;;;;-0.74;100.00;98994.66;5013800;28;20249;-87
2022/01/21 07:02:58;;;;;;;59.27;26.83;;;;;;;-0.06;100.00;99093.78;5014380;28;20870;-86
2022/01/21 07:05:25;;;;;;;53.20;25.57;;;;;;;0.76;100.00;99238.09;5014559;28;20174;-86
2022/01/21 07:07:50;;;;;;;52.03;25.30;;;;;;;1.45;100.00;99377.34;5014571;28;20265;-86
2022/01/21 07:10:16;;;;;;;59.33;27.27;;;;;;;2.36;100.00;99537.59;5014143;28;21351;-84
2022/01/21 07:12:44;;;;;;;23.53;9.80;;;;;;;0.55;100.00;99219.81;5014178;28;20229;-85
2022/01/21 07:16:30;;;;;;;13.87;7.93;;;;;;;1.86;100.00;99496.97;5149804;27;20301;-85
2022/01/21 07:18:56;;;;;;;22.67;9.97;;;;;;;1.93;100.00;99506.66;5146155;27;20481;-85
2022/01/21 07:21:21;;;;;;;31.80;14.73;;;;;;;1.21;100.00;99395.34;5130371;28;20163;-86
2022/01/21 07:23:47;;;;;;;20.37;10.87;;;;;;;0.71;100.00;99314.09;5112417;28;20562;-86
2022/01/21 07:26:14;;;;;;;11.27;6.53;;;;;;;1.56;100.00;99477.97;5130363;28;20240;-84
2022/01/21 07:28:39;;;;;;;15.00;8.10;;;;;;;1.72;100.00;99561.63;5126858;28;20159;-84
2022/01/21 07:31:05;;;;;;;18.87;8.30;;;;;;;0.85;100.00;99447.22;5047505;28;20467;-85
2022/01/21 07:33:31;;;;;;;11.70;6.50;;;;;;;0.15;100.00;99324.41;5048313;28;20192;-85
2022/01/21 07:35:56;;;;;;;16.97;8.93;;;;;;;0.25;100.00;99343.47;5067931;28;20265;-85
2022/01/21 07:38:22;;;;;;;14.57;7.53;;;;;;;-0.41;100.00;99209.44;5067284;28;20196;-86
2022/01/21 07:40:47;;;;;;;27.07;13.07;;;;;;;0.71;100.00;99381.34;5067850;28;20192;-85
2022/01/21 07:43:13;;;;;;;19.57;9.33;;;;;;;1.12;100.00;99404.59;5050715;28;20184;-86
2022/01/21 07:45:38;;;;;;;21.43;10.70;;;;;;;2.25;100.00;99577.50;5068929;28;20204;-86
2022/01/21 07:48:04;;;;;;;19.93;10.67;;;;;;;2.28;100.00;99577.72;5058027;28;20224;-86
2022/01/21 07:50:31;;;;;;;17.93;9.87;;;;;;;2.12;100.00;99562.28;5066640;28;20265;-85
2022/01/21 07:52:56;;;;;;;13.57;6.97;;;;;;;2.40;100.00;99581.16;5067146;28;20506;-85
2022/01/21 07:55:22;;;;;;;11.07;6.80;;;;;;;1.40;100.00;99393.53;5066363;28;21036;-86
2022/01/21 07:57:47;;;;;;;27.50;15.87;;;;;;;1.31;100.00;99357.06;5074646;28;20268;-85
2022/01/21 08:00:13;;;;;;;25.70;14.53;;;;;;;-0.22;100.00;99089.19;5054709;28;20184;-86
2022/01/21 08:02:39;;;;;;;28.23;11.93;;;;;;;2.71;100.00;99582.78;5067238;28;20226;-86
2022/01/21 08:05:05;;;;;;;31.50;14.70;;;;;;;2.72;100.00;99572.03;5050255;28;21009;-87
2022/01/21 08:07:31;;;;;;;43.77;18.70;;;;;;;0.74;100.00;99224.66;5069286;28;20211;-84
2022/01/21 08:09:56;;;;;;;35.10;15.70;;;;;;;0.59;100.00;99204.38;5068743;28;20419;-85
2022/01/21 08:12:22;;;;;;;17.80;9.37;;;;;;;0.76;100.00;99228.13;5068200;28;20161;-85
2022/01/21 08:14:48;;;;;;;9.07;4.53;;;;;;;1.59;100.00;99415.84;5040934;28;20347;-86
2022/01/21 08:17:13;;;;;;;8.57;4.23;;;;;;;2.67;100.00;99592.41;5065228;28;20718;-85
2022/01/21 08:19:39;;;;;;;7.27;3.47;;;;;;;1.65;100.00;99427.16;5065656;28;20184;-85
2022/01/21 08:22:04;;;;;;;5.83;3.40;;;;;;;1.13;100.00;99356.47;5066547;28;20185;-84
2022/01/21 08:24:29;;;;;;;6.27;2.97;;;;;;;1.14;100.00;99353.25;5047641;28;20200;-86
2022/01/21 08:26:55;;;;;;;7.10;3.33;;;;;;;2.65;100.00;99612.31;5058323;28;20173;-85
2022/01/21 08:29:21;;;;;;;8.50;3.73;;;;;;;2.01;100.00;99505.63;5041646;28;20965;-85
2022/01/21 08:31:46;;;;;;;6.17;3.80;;;;;;;2.32;100.00;99552.22;5053932;28;20383;-86
2022/01/21 08:34:13;;;;;;;13.37;6.10;;;;;;;2.28;100.00;99567.75;5053794;28;20177;-85
2022/01/21 08:36:39;;;;;;;6.53;3.20;;;;;;;1.18;100.00;99402.59;5053462;28;20208;-84
2022/01/21 08:39:05;;;;;;;10.80;3.87;;;;;;;2.26;100.00;99581.72;5053742;28;20927;-84
2022/01/21 08:41:31;;;;;;;5.17;3.10;;;;;;;0.49;100.00;99294.06;5053152;28;20232;-85
2022/01/21 08:43:56;;;;;;;29.70;14.33;;;;;;;1.32;100.00;99441.94;5053007;28;20424;-84
2022/01/21 08:46:22;;;;;;;10.17;4.23;;;;;;;1.97;100.00;99579.44;5052849;28;20198;-86
2022/01/21 08:48:48;;;;;;;5.73;3.10;;;;;;;-0.31;100.00;99175.50;5043938;28;20217;-86
2022/01/21 08:51:20;;;;;;;7.50;3.90;;;;;;;1.12;100.00;99440.38;5054598;28;20629;-86
2022/01/21 08:53:46;;;;;;;5.60;3.33;;;;;;;1.27;100.00;99469.75;5055048;28;20211;-85
2022/01/21 08:56:15;;;;;;;4.33;2.00;;;;;;;2.42;100.00;99663.75;5053151;28;20863;-85
2022/01/21 08:58:41;;;;;;;3.73;2.63;;;;;;;-0.22;100.00;99237.56;5054397;28;20169;-86
2022/01/21 09:01:09;;;;;;;5.43;2.90;;;;;;;2.48;100.00;99666.69;5053368;28;20515;-86
2022/01/21 09:03:35;;;;;;;5.17;3.00;;;;;;;-0.22;100.00;99220.16;5036101;28;20636;-85
2022/01/21 09:06:01;;;;;;;5.90;3.13;;;;;;;2.42;100.00;99664.59;5052540;28;20459;-85
2022/01/21 09:08:29;;;;;;;5.53;2.50;;;;;;;-0.22;100.00;99245.88;5030340;28;20417;-86
2022/01/21 09:10:56;;;;;;;5.07;2.70;;;;;;;1.02;100.00;99439.47;5034460;28;20223;-85
2022/01/21 09:13:23;;;;;;;8.37;3.80;;;;;;;2.52;100.00;99674.56;5046642;28;20481;-85
2022/01/21 09:15:49;;;;;;;8.17;3.73;;;;;;;2.55;100.00;99684.81;5055362;28;20490;-85
2022/01/21 09:18:20;;;;;;;5.67;3.60;;;;;;;1.20;100.00;99443.47;5051168;28;20935;-85
2022/01/21 09:20:47;;;;;;;3.20;2.10;;;;;;;2.61;100.00;99680.28;5055698;28;20216;-86
2022/01/21 09:23:12;;;;;;;4.30;2.03;;;;;;;1.59;100.00;99521.47;5033801;28;20946;-85
2022/01/21 09:25:38;;;;;;;5.93;3.03;;;;;;;-0.54;100.00;99139.56;5054032;28;20464;-85
2022/01/21 09:28:04;;;;;;;7.80;3.10;;;;;;;0.03;100.00;99193.16;5054060;28;20173;-85
2022/01/21 09:30:30;;;;;;;6.93;4.10;;;;;;;3.04;100.00;99663.63;5052868;28;20170;-85
2022/01/21 09:32:56;;;;;;;4.70;2.77;;;;;;;0.81;100.00;99271.72;5053318;28;20170;-85
2022/01/21 09:35:23;;;;;;;6.57;3.40;;;;;;;3.16;100.00;99662.06;5054204;28;20788;-85
2022/01/21 09:37:48;;;;;;;5.13;2.77;;;;;;;2.25;100.00;99500.91;5052973;28;20408;-85
2022/01/21 09:40:14;;;;;;;9.73;5.23;;;;;;;1.30;100.00;99308.81;5053760;28;20432;-85
2022/01/21 09:42:40;;;;;;;10.70;5.67;;;;;;;3.30;100.00;99651.47;5051425;28;20192;-86
2022/01/21 09:45:09;;;;;;;14.17;8.27;;;;;;;3.49;100.00;99655.47;5053111;28;20224;-86
2022/01/21 09:47:48;;;;;;;14.83;8.13;;;;;;;3.45;100.00;99652.63;5053537;28;20200;-85
2022/01/21 09:50:18;;;;;;;4.97;3.07;;;;;;;2.58;100.00;99490.16;5054730;28;20461;-84
2022/01/21 09:52:48;;;;;;;10.50;5.03;;;;;;;3.05;100.00;99547.84;5053188;28;20419;-85
2022/01/21 09:55:17;;;;;;;4.57;3.17;;;;;;;3.64;100.00;99625.72;5052903;28;20483;-85
2022/01/21 09:57:46;;;;;;;6.67;4.30;;;;;;;2.36;100.00;99429.34;5051840;28;20836;-86
2022/01/21 10:00:12;;;;;;;9.67;4.73;;;;;;;2.60;100.00;99491.13;5053416;28;20420;-85
2022/01/21 10:02:40;;;;;;;10.37;5.37;;;;;;;3.38;100.00;99595.34;5052964;28;20420;-85
2022/01/21 10:05:06;;;;;;;6.30;2.70;;;;;;;3.44;100.00;99608.34;5051447;28;20456;-84
2022/01/21 10:07:34;;;;;;;9.57;3.97;;;;;;;2.71;100.00;99485.31;5052910;28;20507;-86
2022/01/21 10:10:06;;;;;;;15.87;6.53;;;;;;;3.21;100.00;99526.59;5051738;28;20471;-86
2022/01/21 10:12:32;;;;;;;11.87;4.47;;;;;;;3.60;98.57;99590.34;5053068;28;20488;-86
2022/01/21 10:14:57;;;;;;;13.47;6.07;;;;;;;0.85;97.44;99163.22;5051948;28;21018;-85
2022/01/21 10:17:23;;;;;;;21.63;8.87;;;;;;;1.31;96.64;99209.97;5051403;28;20208;-84
2022/01/21 10:19:51;;;;;;;14.67;6.63;;;;;;;2.87;94.90;99479.84;5052581;28;20204;-85
2022/01/21 10:22:21;;;;;;;6.93;2.70;;;;;;;3.43;91.20;99594.09;5054794;28;20173;-85
2022/01/21 10:25:05;;;;;;;10.27;4.97;;;;;;;3.50;90.98;99607.16;5052320;28;20550;-85
2022/01/21 10:27:35;;;;;;;8.77;3.50;;;;;;;2.04;92.50;99371.94;5053063;28;20931;-84
2022/01/21 10:30:06;;;;;;;9.07;3.53;;;;;;;3.45;93.54;99662.63;5051556;28;20837;-86
2022/01/21 10:32:36;;;;;;;8.63;3.57;;;;;;;0.54;95.80;99110.16;5053585;28;20458;-85
2022/01/21 10:35:02;;;;;;;8.47;2.47;;;;;;;1.37;98.20;99283.63;5051420;28;20428;-85
2022/01/21 10:37:32;;;;;;;4.80;2.33;;;;;;;2.84;99.66;99529.59;5051150;28;20428;-85
2022/01/21 10:40:00;;;;;;;11.63;3.27;;;;;;;3.37;100.00;99606.16;5052992;28;20415;-86
2022/01/21 10:42:26;;;;;;;6.23;3.20;;;;;;;3.32;99.19;99605.81;5052291;28;20553;-85
2022/01/21 10:44:52;;;;;;;7.80;3.33;;;;;;;3.06;99.06;99607.09;5052252;28;20467;-85
2022/01/21 10:47:18;;;;;;;4.43;2.60;;;;;;;1.04;98.46;99263.56;5051392;28;20408;-85
2022/01/21 10:49:57;;;;;;;4.97;2.30;;;;;;;1.08;97.60;99282.97;5042731;28;20324;-85
2022/01/21 10:52:42;;;;;;;5.30;3.13;;;;;;;3.04;98.66;99601.09;5052130;28;20903;-85
2022/01/21 10:55:32;;;;;;;4.17;2.40;;;;;;;2.97;97.95;99599.75;5051861;28;20418;-86
2022/01/21 10:58:14;;;;;;;7.77;4.13;;;;;;;2.98;97.21;99586.50;5051755;28;20470;-85
2022/01/21 11:01:17;;;;;;;4.43;2.13;;;;;;;2.80;97.82;99567.63;5052516;28;20418;-86
2022/01/21 11:04:10;;;;;;;4.57;2.80;;;;;;;2.50;96.14;99537.81;4992959;28;20960;-85
2022/01/21 11:06:49;;;;;;;3.37;1.90;;;;;;;2.09;96.25;99459.66;5010452;28;20434;-85
2022/01/21 11:09:23;;;;;;;6.10;3.10;;;;;;;0.51;95.43;99180.50;4994173;28;20405;-86
2022/01/21 11:12:07;;;;;;;7.40;3.27;;;;;;;3.03;95.65;99589.34;5010291;28;20408;-86
2022/01/21 11:14:34;;;;;;;6.70;2.57;;;;;;;2.16;93.19;99462.78;5009693;28;20477;-85
2022/01/21 11:17:16;;;;;;;7.17;3.00;;;;;;;2.85;92.89;99564.72;4993601;28;20428;-85
2022/01/21 11:20:13;;;;;;;7.30;3.20;;;;;;;2.08;91.74;99455.44;4993593;28;20516;-84
2022/01/21 11:22:57;;;;;;;17.50;8.03;;;;;;;2.88;90.28;99579.94;4999128;28;20872;-85
2022/01/21 11:25:44;;;;;;;12.60;4.80;;;;;;;2.90;89.43;99570.94;5006690;28;20520;-84
2022/01/21 11:28:15;;;;;;;6.77;3.20;;;;;;;3.02;89.18;99577.63;5010341;28;20409;-85
2022/01/21 11:30:41;;;;;;;12.07;4.87;;;;;;;1.67;88.80;99349.94;5010344;28;20421;-86
2022/01/21 11:33:06;;;;;;;17.43;5.80;;;;;;;2.69;89.74;99518.47;4993723;28;20832;-85
2022/01/21 11:35:33;;;;;;;15.90;6.50;;;;;;;2.32;88.46;99392.38;5010407;28;20218;-85
2022/01/21 11:37:58;;;;;;;8.77;4.20;;;;;;;2.93;87.31;99506.19;4994316;28;20191;-84
2022/01/21 11:40:25;;;;;;;9.70;3.97;;;;;;;3.24;87.04;99556.81;5052735;28;20405;-87
2022/01/21 11:42:51;;;;;;;13.03;5.07;;;;;;;3.45;86.12;99553.41;5058890;28;20173;-85
2022/01/21 11:50:49;;;;;;;13.20;5.93;;;;;;;3.37;84.60;99554.47;5010481;28;20457;-85
2022/01/21 11:53:35;;;;;;;6.90;3.47;;;;;;;2.30;85.04;99373.91;4993967;28;20437;-85
2022/01/21 11:56:06;;;;;;;9.80;3.27;;;;;;;3.31;84.04;99538.13;5010036;28;20497;-85
2022/01/21 11:58:32;;;;;;;11.53;4.20;;;;;;;1.67;83.46;99233.56;5010246;28;20421;-86
2022/01/21 12:00:57;;;;;;;20.77;6.33;;;;;;;0.56;82.64;99022.38;5010294;28;20934;-86
2022/01/21 12:03:24;;;;;;;9.57;3.47;;;;;;;2.90;83.58;99442.56;5013918;28;20168;-84
2022/01/21 12:05:50;;;;;;;9.47;2.87;;;;;;;0.15;81.55;98980.13;5013460;28;20836;-86
2022/01/21 12:08:46;;;;;;;9.03;3.73;;;;;;;1.84;82.12;99218.97;4996912;28;20469;-85
2022/01/21 12:11:36;;;;;;;10.47;4.80;;;;;;;3.58;83.64;99537.66;5013569;28;20409;-85
2022/01/21 12:14:21;;;;;;;7.13;3.40;;;;;;;1.68;84.30;99234.41;5013186;28;20981;-85
2022/01/21 12:16:53;;;;;;;8.50;4.57;;;;;;;2.14;83.62;99286.16;5013487;28;20426;-85
2022/01/21 12:19:28;;;;;;;10.30;5.43;;;;;;;3.08;84.14;99470.56;5013352;28;20406;-85
2022/01/21 12:21:54;;;;;;;12.60;6.50;;;;;;;3.62;82.64;99542.13;5013949;28;20477;-86
2022/01/21 12:24:44;;;;;;;6.63;3.57;;;;;;;3.72;80.23;99532.00;5013214;28;20413;-85
2022/01/21 12:27:13;;;;;;;3.63;2.10;;;;;;;2.65;79.78;99354.03;5035907;28;20420;-85